Time;durP1;ratioP1;P1;durP2;ratioP2;P2;SDS_P1;SDS_P2;PMS_P1;PMS_P2;Temp;Humidity;BMP_temperature;BMP_pressure;BME280_temperature;BME280_humidity;BME280_pressure;Samples;Min_cycle;Max_cycle;Signal;HPM_P1;HPM_P2
2024/02/03 00:02:15;;;;;;;13.07;11.73;;;;;;;8.71;100.00;102656.69;5130546;27;20023;-39
2024/02/03 00:04:40;;;;;;;12.67;11.40;;;;;;;8.76;100.00;102665.91;5130529;28;20058;-39
2024/02/03 00:07:06;;;;;;;12.25;10.98;;;;;;;8.72;100.00;102658.34;5120968;27;20767;-39
2024/02/03 00:09:31;;;;;;;13.18;10.77;;;;;;;8.78;100.00;102671.13;5117226;28;20027;-39
2024/02/03 00:11:57;;;;;;;11.50;10.40;;;;;;;8.71;100.00;102657.50;5116923;28;20463;-39
2024/02/03 00:14:22;;;;;;;10.87;9.87;;;;;;;8.78;100.00;102663.03;5116185;28;20293;-39
2024/02/03 00:16:47;;;;;;;11.57;10.30;;;;;;;8.80;100.00;102662.88;5116898;28;20026;-39
2024/02/03 00:19:13;;;;;;;10.60;9.60;;;;;;;8.81;100.00;102660.00;5116694;28;20028;-39
2024/02/03 00:21:38;;;;;;;11.20;10.00;;;;;;;8.82;100.00;102653.59;5117149;27;20369;-39
2024/02/03 00:24:04;;;;;;;9.57;8.67;;;;;;;8.83;100.00;102649.03;5116462;28;20304;-40
2024/02/03 00:26:29;;;;;;;10.27;9.30;;;;;;;8.84;100.00;102648.03;5117020;28;20471;-39
2024/02/03 00:28:55;;;;;;;10.67;8.53;;;;;;;8.85;100.00;102653.25;5116055;28;20047;-39
2024/02/03 00:31:20;;;;;;;9.23;8.32;;;;;;;8.87;100.00;102639.56;5116889;28;20023;-39
2024/02/03 00:33:45;;;;;;;9.67;8.77;;;;;;;8.81;100.00;102629.50;5116205;28;20421;-39
2024/02/03 00:36:24;;;;;;;9.50;8.60;;;;;;;8.88;100.00;102655.59;5116644;28;20061;-39
2024/02/03 00:38:49;;;;;;;8.88;8.02;;;;;;;8.83;100.00;102639.06;5115821;28;20265;-39
2024/02/03 00:41:15;;;;;;;9.73;8.60;;;;;;;8.79;100.00;102626.97;5116151;28;20024;-39
2024/02/03 00:43:40;;;;;;;9.35;8.55;;;;;;;8.82;100.00;102631.16;5116017;28;20023;-39
2024/02/03 00:46:06;;;;;;;9.33;8.47;;;;;;;8.87;100.00;102644.97;5116285;28;20517;-39
2024/02/03 00:48:31;;;;;;;9.63;8.67;;;;;;;8.90;100.00;102650.88;5115929;28;20055;-39
2024/02/03 00:50:56;;;;;;;9.85;8.95;;;;;;;8.75;100.00;102626.47;5115920;28;20621;-39
2024/02/03 00:53:22;;;;;;;9.53;8.30;;;;;;;8.92;100.00;102642.59;5115631;28;20032;-39
2024/02/03 00:55:47;;;;;;;10.35;9.43;;;;;;;8.89;100.00;102640.25;5114445;28;20493;-39
2024/02/03 00:58:12;;;;;;;10.07;9.13;;;;;;;8.85;100.00;102630.81;5116038;28;20035;-39
2024/02/03 01:00:38;;;;;;;10.80;9.67;;;;;;;8.89;100.00;102646.50;5115447;28;20448;-39
2024/02/03 01:03:03;;;;;;;11.05;9.90;;;;;;;8.90;100.00;102644.63;5115452;28;20349;-39
2024/02/03 01:05:29;;;;;;;11.27;9.95;;;;;;;8.89;100.00;102638.41;5115601;28;20042;-39
2024/02/03 01:07:54;;;;;;;11.97;10.33;;;;;;;8.86;100.00;102636.03;5115599;28;20027;-39
2024/02/03 01:10:19;;;;;;;11.10;10.10;;;;;;;8.87;100.00;102643.09;5115454;28;20522;-39
2024/02/03 01:12:45;;;;;;;11.52;10.35;;;;;;;8.88;100.00;102638.56;5115980;28;20028;-39
2024/02/03 01:15:10;;;;;;;11.60;10.50;;;;;;;8.80;100.00;102634.06;5115717;28;20359;-39
2024/02/03 01:17:36;;;;;;;11.52;10.40;;;;;;;8.87;100.00;102645.81;5115742;28;20102;-39
2024/02/03 01:20:01;;;;;;;11.47;10.20;;;;;;;8.80;100.00;102635.91;5114499;28;20080;-39
2024/02/03 01:22:27;;;;;;;11.88;10.77;;;;;;;8.87;100.00;102635.00;5115862;28;20372;-39
2024/02/03 01:24:52;;;;;;;12.38;10.90;;;;;;;8.86;100.00;102638.72;5115490;28;20024;-39
2024/02/03 01:27:18;;;;;;;12.27;11.07;;;;;;;8.87;100.00;102639.56;5115750;28;20482;-39
2024/02/03 01:29:43;;;;;;;11.50;10.40;;;;;;;8.86;100.00;102644.13;5115432;28;20294;-39
2024/02/03 01:32:08;;;;;;;11.30;10.20;;;;;;;8.86;100.00;102636.03;5115321;28;20463;-39
2024/02/03 01:34:34;;;;;;;11.47;10.47;;;;;;;8.73;100.00;102616.88;5114928;28;20292;-39
2024/02/03 01:36:59;;;;;;;11.02;10.02;;;;;;;8.87;100.00;102632.31;5115316;28;20104;-39
2024/02/03 01:39:25;;;;;;;10.80;9.80;;;;;;;8.86;100.00;102635.19;5114824;28;20028;-39
2024/02/03 01:41:50;;;;;;;11.43;9.63;;;;;;;8.87;100.00;102634.19;5115153;28;20346;-39
2024/02/03 01:44:15;;;;;;;9.75;8.95;;;;;;;8.85;100.00;102625.44;5114883;28;20456;-40
2024/02/03 01:46:41;;;;;;;10.93;9.87;;;;;;;8.85;100.00;102628.13;5115411;28;20104;-39
2024/02/03 01:49:07;;;;;;;11.07;10.13;;;;;;;8.87;100.00;102634.19;5114803;28;20276;-39
2024/02/03 01:51:33;;;;;;;11.93;10.73;;;;;;;8.85;100.00;102630.81;5115074;28;20452;-39
2024/02/03 01:54:00;;;;;;;10.38;9.38;;;;;;;8.84;100.00;102619.19;5114635;28;20024;-39
2024/02/03 01:56:26;;;;;;;11.48;10.07;;;;;;;8.85;100.00;102618.19;5114386;28;20086;-39
2024/02/03 01:58:52;;;;;;;;;;;;;;;8.88;100.00;102619.66;5115528;28;20417;-39
2024/02/03 02:01:17;;;;;;;9.68;8.77;;;;;;;8.84;100.00;102603.00;5114871;28;19916;-39
2024/02/03 02:03:43;;;;;;;11.20;10.10;;;;;;;8.84;100.00;102603.00;5114534;28;20107;-39
2024/02/03 02:06:09;;;;;;;10.00;9.00;;;;;;;8.87;100.00;102623.38;5114502;28;20531;-39
2024/02/03 02:08:37;;;;;;;10.27;9.27;;;;;;;8.86;100.00;102621.72;5114371;28;20016;-39
2024/02/03 02:11:03;;;;;;;9.63;8.70;;;;;;;8.81;100.00;102605.22;5114583;27;20469;-39
2024/02/03 02:13:29;;;;;;;9.27;8.48;;;;;;;8.89;100.00;102621.38;5114898;28;20380;-39
2024/02/03 02:15:54;;;;;;;9.32;8.07;;;;;;;8.81;100.00;102597.13;5114423;28;20020;-40
2024/02/03 02:18:20;;;;;;;9.07;8.25;;;;;;;8.90;100.00;102623.88;5113992;28;20027;-39
2024/02/03 02:20:45;;;;;;;8.77;7.97;;;;;;;8.93;100.00;102626.25;5114226;28;20031;-39
2024/02/03 02:23:11;;;;;;;8.87;7.97;;;;;;;8.93;100.00;102618.16;5114489;28;20028;-39
2024/02/03 02:25:36;;;;;;;8.43;7.60;;;;;;;8.96;100.00;102623.16;5114402;28;20606;-40
2024/02/03 02:28:02;;;;;;;8.57;7.68;;;;;;;8.97;100.00;102618.59;5114638;28;20292;-43
2024/02/03 02:30:27;;;;;;;8.63;7.45;;;;;;;8.97;100.00;102605.94;5114124;28;20028;-39
2024/02/03 02:32:53;;;;;;;9.00;8.10;;;;;;;8.98;100.00;102610.34;5114422;28;20419;-39
2024/02/03 02:35:18;;;;;;;8.27;7.25;;;;;;;9.01;100.00;102612.69;5114127;28;20277;-39
2024/02/03 02:37:44;;;;;;;7.65;7.00;;;;;;;9.01;100.00;102609.97;5114520;28;20384;-39
2024/02/03 02:40:11;;;;;;;9.88;7.80;;;;;;;9.01;100.00;102601.88;5114229;28;20023;-39
2024/02/03 02:42:36;;;;;;;8.60;7.80;;;;;;;9.03;100.00;102604.44;5114158;28;20357;-39
2024/02/03 02:45:02;;;;;;;8.80;7.90;;;;;;;8.93;100.00;102591.16;5113639;28;20093;-39
2024/02/03 02:47:28;;;;;;;8.85;8.05;;;;;;;9.01;100.00;102615.38;5114659;28;20031;-39
2024/02/03 02:49:53;;;;;;;8.55;7.50;;;;;;;9.00;100.00;102610.16;5113784;28;20031;-39
2024/02/03 02:52:19;;;;;;;10.20;8.03;;;;;;;8.99;100.00;102605.81;5114101;28;20027;-39
2024/02/03 02:54:44;;;;;;;8.13;7.35;;;;;;;8.99;100.00;102601.25;5113821;28;20110;-39
2024/02/03 02:57:09;;;;;;;9.03;7.50;;;;;;;9.00;100.00;102596.69;5114548;28;20426;-39
2024/02/03 02:59:35;;;;;;;8.77;7.87;;;;;;;9.00;100.00;102599.38;5113453;28;20069;-39
2024/02/03 03:02:00;;;;;;;8.80;7.50;;;;;;;9.00;100.00;102586.72;5113740;28;20261;-39
2024/02/03 03:04:26;;;;;;;9.40;7.47;;;;;;;8.94;100.00;102571.25;5113623;28;20277;-39
2024/02/03 03:06:51;;;;;;;7.90;7.20;;;;;;;8.99;100.00;102593.16;5114195;28;20055;-39
2024/02/03 03:09:16;;;;;;;8.77;7.73;;;;;;;8.99;100.00;102582.34;5113565;28;20100;-39
2024/02/03 03:11:43;;;;;;;8.13;6.90;;;;;;;9.01;100.00;102591.09;5114185;28;20287;-39
2024/02/03 03:14:08;;;;;;;9.30;7.13;;;;;;;9.01;100.00;102588.41;5113524;28;20027;-39
2024/02/03 03:16:34;;;;;;;8.23;7.05;;;;;;;9.02;100.00;102589.22;5113986;28;20076;-39
2024/02/03 03:19:00;;;;;;;8.00;7.07;;;;;;;9.05;100.00;102582.66;5113610;28;20389;-39
2024/02/03 03:21:25;;;;;;;7.77;6.43;;;;;;;9.07;100.00;102594.94;5113520;28;20023;-39
2024/02/03 03:23:50;;;;;;;7.47;6.60;;;;;;;9.07;100.00;102581.44;5114040;28;20270;-39
2024/02/03 03:26:16;;;;;;;8.27;7.20;;;;;;;9.08;100.00;102587.66;5113557;28;20110;-39
2024/02/03 03:28:41;;;;;;;9.47;7.53;;;;;;;9.07;100.00;102589.53;5113492;28;20023;-38
2024/02/03 03:31:06;;;;;;;7.63;6.87;;;;;;;9.03;100.00;102586.38;5113185;28;20050;-39
2024/02/03 03:33:32;;;;;;;8.83;7.20;;;;;;;9.01;100.00;102588.41;5113166;28;20342;-39
2024/02/03 03:35:57;;;;;;;8.20;7.43;;;;;;;8.95;100.00;102581.03;5113142;28;20483;-39
2024/02/03 03:38:23;;;;;;;12.43;8.80;;;;;;;8.96;100.00;102577.28;5113435;28;20399;-39
2024/02/03 03:40:49;;;;;;;9.00;8.10;;;;;;;8.94;100.00;102587.44;5113323;28;20027;-39
2024/02/03 03:43:14;;;;;;;9.55;8.73;;;;;;;8.85;100.00;102566.09;5117598;28;20023;-39
2024/02/03 03:45:39;;;;;;;11.00;9.47;;;;;;;8.90;100.00;102579.88;5117237;28;20039;-39
2024/02/03 03:48:05;;;;;;;10.65;9.55;;;;;;;8.79;100.00;102567.63;5117136;28;20038;-39
2024/02/03 03:50:31;;;;;;;11.10;9.73;;;;;;;8.82;100.00;102572.66;5117039;28;20031;-39
2024/02/03 03:52:56;;;;;;;10.70;9.67;;;;;;;8.73;100.00;102557.53;5117467;27;20050;-39
2024/02/03 03:55:21;;;;;;;12.93;11.63;;;;;;;8.78;100.00;102571.31;5117525;28;20124;-39
2024/02/03 03:57:47;;;;;;;11.80;10.57;;;;;;;8.77;100.00;102572.34;5116970;28;20092;-39
2024/02/03 04:00:13;;;;;;;12.00;10.90;;;;;;;8.74;100.00;102562.78;5117256;28;20297;-39
2024/02/03 04:02:39;;;;;;;12.35;11.15;;;;;;;8.71;100.00;102564.97;5117442;28;20015;-39
2024/02/03 04:05:08;;;;;;;12.68;11.48;;;;;;;8.64;100.00;102562.16;5116791;28;20027;-39
2024/02/03 04:07:33;;;;;;;13.48;12.07;;;;;;;8.56;100.00;102562.19;5117302;28;20049;-39
2024/02/03 04:09:58;;;;;;;13.67;12.13;;;;;;;8.60;100.00;102566.22;5117009;28;20024;-39
2024/02/03 04:12:24;;;;;;;13.37;12.03;;;;;;;8.61;100.00;102572.44;5117133;28;20160;-39
2024/02/03 04:14:49;;;;;;;13.60;12.20;;;;;;;8.58;100.00;102572.78;5116839;27;20281;-39
2024/02/03 04:17:15;;;;;;;13.30;12.00;;;;;;;8.57;100.00;102574.66;5116793;28;20273;-39
2024/02/03 04:19:41;;;;;;;14.32;12.93;;;;;;;8.54;100.00;102568.75;5116714;28;20032;-39
2024/02/03 04:22:13;;;;;;;;;;;;;;;8.66;100.00;102583.53;5116998;28;20034;-40
2024/02/03 04:24:39;;;;;;;13.88;12.35;;;;;;;8.63;100.00;102579.31;5116399;28;19908;-39
2024/02/03 04:27:05;;;;;;;;;;;;;;;8.65;100.00;102580.00;5116785;28;20020;-39
2024/02/03 04:29:30;;;;;;;14.02;12.45;;;;;;;8.63;100.00;102573.09;5116238;28;20286;-39
2024/02/03 04:31:55;;;;;;;13.77;12.43;;;;;;;8.62;100.00;102576.81;5116276;28;20024;-39
2024/02/03 04:34:21;;;;;;;13.90;12.57;;;;;;;8.62;100.00;102571.41;5115886;28;20614;-39
2024/02/03 04:36:47;;;;;;;14.33;12.83;;;;;;;8.58;100.00;102570.91;5117000;28;20026;-39
2024/02/03 04:39:13;;;;;;;15.55;12.52;;;;;;;8.55;100.00;102559.66;5116917;28;20269;-39
2024/02/03 04:41:39;;;;;;;14.15;12.75;;;;;;;8.62;100.00;102563.34;5117020;28;20455;-39
2024/02/03 04:44:05;;;;;;;13.63;12.23;;;;;;;8.61;100.00;102569.75;5116652;28;20038;-39
2024/02/03 04:46:30;;;;;;;14.57;13.07;;;;;;;8.61;100.00;102570.59;5116337;28;20067;-39
2024/02/03 04:48:55;;;;;;;14.07;12.77;;;;;;;8.55;100.00;102568.59;5116539;28;20023;-39
2024/02/03 04:51:21;;;;;;;12.63;11.52;;;;;;;8.55;100.00;102559.66;5116501;28;20032;-39
2024/02/03 04:53:46;;;;;;;13.48;12.00;;;;;;;8.62;100.00;102577.66;5115477;28;20023;-39
2024/02/03 04:56:11;;;;;;;14.93;11.70;;;;;;;8.62;100.00;102574.94;5116328;28;20055;-39
2024/02/03 04:58:37;;;;;;;12.67;11.40;;;;;;;8.61;100.00;102575.97;5116014;28;20028;-39
2024/02/03 05:01:04;;;;;;;13.48;11.20;;;;;;;8.59;100.00;102569.06;5116045;28;20031;-39
2024/02/03 05:03:29;;;;;;;12.18;10.98;;;;;;;8.62;100.00;102568.72;5116205;28;20039;-39
2024/02/03 05:05:55;;;;;;;11.90;10.70;;;;;;;8.55;100.00;102556.97;5115633;28;20476;-39
2024/02/03 05:08:20;;;;;;;11.90;10.70;;;;;;;8.62;100.00;102569.56;5115565;28;20041;-39
2024/02/03 05:10:45;;;;;;;12.90;11.70;;;;;;;8.62;100.00;102577.66;5115921;28;20100;-39
2024/02/03 05:13:11;;;;;;;13.50;11.40;;;;;;;8.62;100.00;102576.81;5115842;28;20023;-39
2024/02/03 05:15:36;;;;;;;12.43;10.77;;;;;;;8.61;100.00;102573.28;5115637;28;20391;-40
2024/02/03 05:18:02;;;;;;;13.10;10.27;;;;;;;8.63;100.00;102575.78;5116049;28;20346;-39
2024/02/03 05:20:27;;;;;;;11.77;10.05;;;;;;;8.63;100.00;102578.50;5115838;28;20353;-40
2024/02/03 05:22:53;;;;;;;11.13;9.97;;;;;;;8.58;100.00;102553.91;5115279;28;20406;-39
2024/02/03 05:25:19;;;;;;;11.68;10.38;;;;;;;8.60;100.00;102558.13;5115560;28;20757;-39
2024/02/03 05:27:45;;;;;;;;;;;;;;;8.64;100.00;102559.47;5116464;28;20027;-40
2024/02/03 05:30:11;;;;;;;11.27;9.93;;;;;;;8.61;100.00;102549.00;5115460;28;20352;-39
2024/02/03 05:32:36;;;;;;;12.00;9.48;;;;;;;8.62;100.00;102550.69;5115347;28;20032;-39
2024/02/03 05:35:01;;;;;;;11.23;9.00;;;;;;;8.61;100.00;102543.63;5114750;28;20390;-39
2024/02/03 05:37:27;;;;;;;11.47;9.53;;;;;;;8.61;100.00;102534.69;5115872;28;20416;-39
2024/02/03 05:39:52;;;;;;;9.93;8.77;;;;;;;8.61;100.00;102522.03;5114870;28;20702;-39
2024/02/03 05:42:17;;;;;;;10.57;9.40;;;;;;;8.62;100.00;102520.19;5115009;27;20020;-39
2024/02/03 05:44:43;;;;;;;11.07;9.43;;;;;;;8.62;100.00;102523.72;5114883;28;20081;-39
2024/02/03 05:47:08;;;;;;;14.13;10.20;;;;;;;8.62;100.00;102523.72;5115106;28;20459;-39
2024/02/03 05:49:33;;;;;;;12.50;10.97;;;;;;;8.62;100.00;102531.81;5114557;28;20475;-39
2024/02/03 05:51:59;;;;;;;10.90;8.97;;;;;;;8.65;100.00;102527.94;5115108;28;20460;-39
2024/02/03 05:54:24;;;;;;;15.00;10.00;;;;;;;8.66;100.00;102524.22;5114745;28;20149;-39
2024/02/03 05:56:50;;;;;;;11.05;9.13;;;;;;;8.64;100.00;102519.00;5115613;28;20486;-39
2024/02/03 05:59:15;;;;;;;10.13;9.10;;;;;;;8.66;100.00;102522.34;5113969;28;20039;-39
2024/02/03 06:01:41;;;;;;;10.67;9.67;;;;;;;8.67;100.00;102528.59;5114704;28;20367;-39
2024/02/03 06:04:07;;;;;;;10.50;8.95;;;;;;;8.60;100.00;102524.94;5113660;28;20031;-39
2024/02/03 06:06:33;;;;;;;10.60;8.40;;;;;;;8.70;100.00;102530.94;5114371;28;20032;-39
2024/02/03 06:08:58;;;;;;;9.95;8.38;;;;;;;8.60;100.00;102517.69;5114062;28;20027;-39
2024/02/03 06:11:24;;;;;;;11.93;8.67;;;;;;;8.70;100.00;102536.31;5114315;28;20085;-39
2024/02/03 06:13:49;;;;;;;8.90;8.00;;;;;;;8.72;100.00;102536.97;5113987;28;20019;-40
2024/02/03 06:16:15;;;;;;;8.50;7.60;;;;;;;8.73;100.00;102531.41;5113848;28;20475;-40
2024/02/03 06:18:40;;;;;;;10.63;7.70;;;;;;;8.68;100.00;102514.06;5113681;28;20059;-40
2024/02/03 06:21:05;;;;;;;9.50;8.30;;;;;;;8.74;100.00;102532.25;5113874;28;20246;-40
2024/02/03 06:23:31;;;;;;;9.20;8.30;;;;;;;8.75;100.00;102536.63;5113591;28;20108;-40
2024/02/03 06:25:56;;;;;;;11.00;7.77;;;;;;;8.70;100.00;102533.63;5113841;28;20484;-40
2024/02/03 06:28:21;;;;;;;12.67;7.63;;;;;;;8.78;100.00;102533.56;5114276;28;20198;-46
2024/02/03 06:30:47;;;;;;;9.80;7.37;;;;;;;8.77;100.00;102537.28;5113820;28;20732;-39
2024/02/03 06:33:12;;;;;;;9.13;7.53;;;;;;;8.79;100.00;102543.34;5114422;28;20061;-39
2024/02/03 06:35:37;;;;;;;9.00;7.47;;;;;;;8.81;100.00;102557.50;5113227;28;20031;-39
2024/02/03 06:38:03;;;;;;;9.73;7.72;;;;;;;8.81;100.00;102543.16;5113349;28;20476;-39
2024/02/03 06:40:28;;;;;;;12.30;7.57;;;;;;;8.82;100.00;102544.84;5113238;28;20035;-39
2024/02/03 06:42:54;;;;;;;8.73;6.80;;;;;;;8.82;100.00;102542.16;5113588;28;20024;-39
2024/02/03 06:45:22;;;;;;;9.20;6.65;;;;;;;8.85;100.00;102545.34;5113429;28;20036;-39
2024/02/03 06:47:47;;;;;;;9.82;6.47;;;;;;;8.85;100.00;102539.09;5113434;28;20019;-39
2024/02/03 06:50:13;;;;;;;7.53;6.70;;;;;;;8.87;100.00;102545.16;5113638;28;20039;-39
2024/02/03 06:52:38;;;;;;;8.98;6.63;;;;;;;8.89;100.00;102554.75;5114088;28;20024;-39
2024/02/03 06:55:04;;;;;;;10.00;6.80;;;;;;;8.83;100.00;102544.66;5113939;28;20502;-39
2024/02/03 06:57:29;;;;;;;8.18;6.10;;;;;;;8.83;100.00;102536.56;5114315;28;20043;-39
2024/02/03 06:59:55;;;;;;;11.63;5.83;;;;;;;8.94;100.00;102546.13;5114057;28;20058;-39
2024/02/03 07:02:20;;;;;;;9.40;6.15;;;;;;;8.94;100.00;102556.94;5114034;28;20024;-39
2024/02/03 07:04:45;;;;;;;9.83;5.97;;;;;;;8.95;100.00;102555.91;5113743;28;20028;-39
2024/02/03 07:07:11;;;;;;;7.80;5.60;;;;;;;8.97;100.00;102557.38;5113963;28;20024;-39
2024/02/03 07:09:37;;;;;;;9.25;5.75;;;;;;;8.97;100.00;102553.84;5113867;28;20445;-39
2024/02/03 07:12:03;;;;;;;9.33;5.17;;;;;;;8.99;100.00;102558.06;5113282;28;20438;-39
2024/02/03 07:14:28;;;;;;;9.02;5.72;;;;;;;9.00;100.00;102551.66;5113494;28;20261;-39
2024/02/03 07:16:53;;;;;;;7.20;4.60;;;;;;;8.98;100.00;102559.09;5115506;28;20096;-39
2024/02/03 07:19:19;;;;;;;8.40;5.23;;;;;;;9.02;100.00;102571.19;5117761;28;20092;-39
2024/02/03 07:21:44;;;;;;;17.10;7.88;;;;;;;9.03;100.00;102575.59;5118560;28;20020;-39
2024/02/03 07:24:10;;;;;;;7.37;5.07;;;;;;;9.05;100.00;102563.75;5117624;28;20046;-39
2024/02/03 07:26:35;;;;;;;6.83;4.80;;;;;;;9.03;100.00;102563.94;5118189;28;20732;-39
2024/02/03 07:29:00;;;;;;;9.03;5.13;;;;;;;9.05;100.00;102561.06;5117606;27;20035;-39
2024/02/03 07:31:26;;;;;;;8.70;5.60;;;;;;;8.99;100.00;102541.88;5118347;28;20065;-39
2024/02/03 07:33:52;;;;;;;7.57;5.53;;;;;;;9.04;100.00;102549.44;5117438;28;20625;-39
2024/02/03 07:36:17;;;;;;;11.75;6.75;;;;;;;8.97;100.00;102546.59;5118196;28;20020;-39
2024/02/03 07:38:43;;;;;;;10.15;6.55;;;;;;;9.03;100.00;102556.69;5117822;28;20476;-39
2024/02/03 07:41:09;;;;;;;9.00;5.80;;;;;;;9.02;100.00;102555.00;5117063;28;20028;-39
2024/02/03 07:43:34;;;;;;;7.63;6.00;;;;;;;8.95;100.00;102555.91;5116966;28;20036;-39
2024/02/03 07:45:59;;;;;;;9.88;6.20;;;;;;;8.97;100.00;102554.69;5117238;28;20079;-39
2024/02/03 07:48:25;;;;;;;8.93;6.40;;;;;;;8.98;100.00;102564.47;5116880;28;20107;-39
2024/02/03 07:50:50;;;;;;;7.93;6.57;;;;;;;8.98;100.00;102561.78;5117460;28;20706;-39
2024/02/03 07:53:16;;;;;;;10.45;6.25;;;;;;;8.97;100.00;102559.25;5117624;28;20169;-39
2024/02/03 07:55:41;;;;;;;9.50;6.50;;;;;;;8.96;100.00;102571.06;5116618;28;20142;-39
2024/02/03 07:58:06;;;;;;;10.17;6.70;;;;;;;8.95;100.00;102569.38;5116690;28;20747;-39
2024/02/03 08:00:32;;;;;;;11.73;6.83;;;;;;;8.95;100.00;102577.47;5117426;28;20035;-39
2024/02/03 08:02:57;;;;;;;7.13;5.97;;;;;;;8.94;100.00;102587.44;5116897;28;20764;-39
2024/02/03 08:05:22;;;;;;;12.63;6.67;;;;;;;8.96;100.00;102584.56;5116758;28;20377;-39
2024/02/03 08:07:48;;;;;;;10.83;6.60;;;;;;;8.95;100.00;102581.03;5117359;28;20106;-39
2024/02/03 08:10:13;;;;;;;10.13;6.17;;;;;;;8.93;100.00;102579.50;5116690;28;20329;-39
2024/02/03 08:12:38;;;;;;;8.77;6.13;;;;;;;8.86;100.00;102578.53;5117545;28;20124;-39
2024/02/03 08:15:04;;;;;;;10.83;6.53;;;;;;;8.93;100.00;102596.56;5116567;28;20062;-39
2024/02/03 08:17:30;;;;;;;10.75;6.55;;;;;;;8.85;100.00;102580.41;5116274;28;20256;-39
2024/02/03 08:19:56;;;;;;;11.88;6.63;;;;;;;8.92;100.00;102591.31;5117009;28;20027;-39
2024/02/03 08:22:21;;;;;;;9.70;6.35;;;;;;;8.91;100.00;102598.56;5116868;28;20036;-40
2024/02/03 08:24:46;;;;;;;10.03;6.47;;;;;;;8.91;100.00;102593.19;5116188;28;20038;-40
2024/02/03 08:27:11;;;;;;;13.70;7.43;;;;;;;8.91;100.00;102581.56;5116056;27;20031;-40
2024/02/03 08:29:37;;;;;;;8.90;5.80;;;;;;;8.92;100.00;102588.63;5116389;28;20077;-40
2024/02/03 08:32:03;;;;;;;10.25;6.18;;;;;;;8.91;100.00;102587.78;5116931;28;20031;-40
2024/02/03 08:34:28;;;;;;;11.23;6.35;;;;;;;8.87;100.00;102588.31;5116407;28;20028;-40
2024/02/03 08:36:53;;;;;;;10.37;6.50;;;;;;;8.83;100.00;102590.50;5116786;28;20111;-40
2024/02/03 08:39:19;;;;;;;12.87;6.97;;;;;;;8.89;100.00;102603.31;5116716;28;20031;-40
2024/02/03 08:41:44;;;;;;;9.53;6.83;;;;;;;8.89;100.00;102595.22;5116482;28;20606;-40
2024/02/03 08:44:09;;;;;;;10.00;6.43;;;;;;;8.82;100.00;102591.53;5116949;28;20479;-40
2024/02/03 08:46:35;;;;;;;10.87;6.50;;;;;;;8.90;100.00;102607.69;5116613;28;20096;-40
2024/02/03 08:49:00;;;;;;;10.87;6.93;;;;;;;8.93;100.00;102614.56;5116013;28;20771;-40
2024/02/03 08:51:25;;;;;;;10.00;6.37;;;;;;;8.92;100.00;102605.66;5115960;28;20402;-40
2024/02/03 08:53:51;;;;;;;7.80;6.70;;;;;;;8.93;100.00;102603.78;5115944;28;20258;-40
2024/02/03 08:56:19;;;;;;;8.80;6.73;;;;;;;8.92;100.00;102604.81;5115768;28;20134;-40
2024/02/03 08:58:44;;;;;;;9.00;7.63;;;;;;;8.94;100.00;102625.22;5115400;28;20368;-40
2024/02/03 09:01:09;;;;;;;8.65;7.13;;;;;;;8.96;100.00;102616.94;5116070;28;20063;-40
2024/02/03 09:03:35;;;;;;;8.50;6.83;;;;;;;8.94;100.00;102618.97;5115460;28;20540;-40
2024/02/03 09:06:00;;;;;;;9.67;7.00;;;;;;;8.95;100.00;102605.31;5116004;28;20023;-40
2024/02/03 09:08:25;;;;;;;10.33;7.47;;;;;;;8.88;100.00;102592.69;5115625;28;20356;-40
2024/02/03 09:10:51;;;;;;;8.07;7.07;;;;;;;8.95;100.00;102610.69;5116445;28;20020;-40
2024/02/03 09:13:16;;;;;;;10.60;7.73;;;;;;;8.96;100.00;102612.38;5115590;28;20055;-40
2024/02/03 09:15:41;;;;;;;10.50;7.63;;;;;;;8.94;100.00;102608.19;5116137;28;20031;-40
2024/02/03 09:18:07;;;;;;;9.77;7.57;;;;;;;8.95;100.00;102613.41;5115800;28;20254;-40
2024/02/03 09:20:32;;;;;;;9.73;7.47;;;;;;;8.96;100.00;102608.84;5115907;28;20114;-40
2024/02/03 09:22:57;;;;;;;9.33;8.23;;;;;;;8.96;100.00;102612.38;5115469;28;20028;-40
2024/02/03 09:25:23;;;;;;;12.50;8.10;;;;;;;8.96;100.00;102608.84;5115338;28;20498;-40
2024/02/03 09:27:48;;;;;;;8.80;7.83;;;;;;;8.96;100.00;102601.59;5115315;28;20266;-40
2024/02/03 09:30:14;;;;;;;10.53;7.40;;;;;;;8.98;100.00;102604.97;5114947;28;20020;-40
2024/02/03 09:32:39;;;;;;;9.07;8.17;;;;;;;8.96;100.00;102606.97;5115577;28;20257;-40
2024/02/03 09:35:05;;;;;;;8.52;7.38;;;;;;;8.98;100.00;102601.44;5115098;28;20307;-40
2024/02/03 09:37:30;;;;;;;8.27;6.80;;;;;;;8.98;100.00;102599.56;5115456;28;20464;-40
2024/02/03 09:39:56;;;;;;;8.03;7.03;;;;;;;8.98;100.00;102607.66;5114179;27;20050;-40
2024/02/03 09:42:23;;;;;;;9.88;7.30;;;;;;;9.01;100.00;102606.44;5114800;28;20019;-40
2024/02/03 09:44:48;;;;;;;7.10;6.40;;;;;;;9.00;100.00;102597.50;5114950;28;20036;-40
2024/02/03 09:47:15;;;;;;;9.02;6.78;;;;;;;9.01;100.00;102601.88;5114921;28;20031;-40
2024/02/03 09:49:40;;;;;;;7.18;6.43;;;;;;;9.01;100.00;102599.19;5114812;28;20058;-40
2024/02/03 09:52:07;;;;;;;7.80;7.00;;;;;;;9.01;100.00;102604.59;5115329;28;20047;-40
2024/02/03 09:54:33;;;;;;;7.28;6.55;;;;;;;9.01;100.00;102604.59;5114750;28;20454;-40
2024/02/03 09:56:59;;;;;;;7.63;6.07;;;;;;;8.89;100.00;102580.91;5114521;28;20135;-40
2024/02/03 09:59:25;;;;;;;7.32;6.40;;;;;;;9.02;100.00;102600.88;5114664;28;20106;-40
2024/02/03 10:01:51;;;;;;;7.90;5.80;;;;;;;9.03;100.00;102602.56;5114441;28;20107;-40
2024/02/03 10:04:16;;;;;;;7.40;6.60;;;;;;;9.02;100.00;102611.66;5114820;28;20312;-40
2024/02/03 10:06:44;;;;;;;8.18;6.00;;;;;;;9.02;100.00;102603.56;5114229;28;20080;-38
2024/02/03 10:09:11;;;;;;;8.65;5.90;;;;;;;9.05;100.00;102609.63;5114351;28;20028;-38
2024/02/03 10:11:40;;;;;;;8.68;6.45;;;;;;;9.06;100.00;102605.91;5114689;27;20421;-38
2024/02/03 10:14:05;;;;;;;8.73;5.95;;;;;;;9.01;100.00;102601.88;5114854;28;20430;-38
2024/02/03 10:16:30;;;;;;;6.73;5.60;;;;;;;9.01;100.00;102587.56;5114853;28;20106;-38
2024/02/03 10:18:56;;;;;;;7.90;5.50;;;;;;;9.08;100.00;102604.72;5114267;28;20753;-38
2024/02/03 10:21:23;;;;;;;7.47;5.63;;;;;;;9.08;100.00;102610.13;5114907;28;20028;-38
2024/02/03 10:23:51;;;;;;;7.70;4.95;;;;;;;9.08;100.00;102618.22;5114444;28;20030;-38
2024/02/03 10:26:16;;;;;;;6.13;4.50;;;;;;;9.11;100.00;102619.72;5114129;28;20106;-38
2024/02/03 10:28:43;;;;;;;4.83;4.33;;;;;;;9.03;100.00;102594.47;5114126;28;20444;-38
2024/02/03 10:31:08;;;;;;;7.53;4.40;;;;;;;9.13;100.00;102617.69;5114031;28;20660;-38
2024/02/03 10:33:33;;;;;;;5.35;4.43;;;;;;;9.14;100.00;102619.38;5114262;28;20027;-38
2024/02/03 10:35:59;;;;;;;6.10;4.57;;;;;;;9.16;100.00;102623.56;5113995;28;20034;-38
2024/02/03 10:38:24;;;;;;;4.57;3.75;;;;;;;9.19;100.00;102615.13;5114318;28;20032;-39
2024/02/03 10:40:51;;;;;;;5.28;4.40;;;;;;;9.19;100.00;102598.91;5114291;28;20036;-40
2024/02/03 10:43:20;;;;;;;4.97;3.80;;;;;;;9.22;100.00;102600.41;5113629;28;20024;-40
2024/02/03 10:45:54;;;;;;;5.18;3.83;;;;;;;9.24;100.00;102598.38;5113534;28;20034;-40
2024/02/03 10:48:20;;;;;;;6.35;3.97;;;;;;;9.20;100.00;102591.66;5114746;28;20465;-40
2024/02/03 10:50:49;;;;;;;5.90;4.20;;;;;;;9.27;100.00;102598.00;5113727;28;20042;-40
2024/02/03 10:53:24;;;;;;;5.65;3.92;;;;;;;9.28;100.00;102600.53;5114136;28;20058;-40
2024/02/03 10:55:56;;;;;;;6.63;4.07;;;;;;;9.30;100.00;102597.66;5114052;28;20051;-40
2024/02/03 10:58:26;;;;;;;5.10;3.40;;;;;;;9.28;100.00;102597.00;5114169;28;20038;-38
2024/02/03 11:00:53;;;;;;;7.88;4.32;;;;;;;9.31;100.00;102601.19;5113455;28;20027;-38
2024/02/03 11:03:20;;;;;;;7.78;3.97;;;;;;;9.26;100.00;102585.53;5114022;28;20111;-41
2024/02/03 11:05:45;;;;;;;7.43;3.88;;;;;;;9.31;100.00;102596.63;5113656;28;20032;-41
2024/02/03 11:08:12;;;;;;;7.67;3.70;;;;;;;9.34;100.00;102604.38;5113840;28;20028;-40
2024/02/03 11:10:38;;;;;;;8.38;4.35;;;;;;;9.34;100.00;102596.28;5114165;28;20034;-38
2024/02/03 11:13:22;;;;;;;7.93;4.38;;;;;;;9.37;100.00;102593.22;5113394;28;20027;-38
2024/02/03 11:15:55;;;;;;;5.30;3.97;;;;;;;9.36;100.00;102594.22;5113305;28;20023;-39